createdAt,value
2022-12-23T00:02:23.082Z,39.23
2022-12-23T00:05:27.735Z,44.27
2022-12-23T00:08:36.028Z,40.83
2022-12-23T00:11:59.788Z,40.50
2022-12-23T00:15:06.921Z,47.13
2022-12-23T00:18:10.598Z,45.87
2022-12-23T00:21:17.677Z,48.47
2022-12-23T00:24:21.354Z,46.40
2022-12-23T00:27:24.911Z,48.17
2022-12-23T00:30:30.035Z,47.60
2022-12-23T00:33:36.583Z,51.03
2022-12-23T00:36:41.020Z,49.33
2022-12-23T00:40:06.563Z,52.40
2022-12-23T00:43:10.710Z,50.10
2022-12-23T00:46:15.900Z,50.27
2022-12-23T00:49:50.317Z,52.10
2022-12-23T00:52:53.997Z,47.80
2022-12-23T00:55:57.634Z,49.03
2022-12-23T00:59:02.050Z,51.67
2022-12-23T01:02:24.506Z,49.10
2022-12-23T01:05:40.567Z,52.60
2022-12-23T01:08:44.276Z,59.07
2022-12-23T01:11:47.998Z,48.87
2022-12-23T01:14:51.651Z,56.07
2022-12-23T01:17:57.017Z,51.20
2022-12-23T01:21:04.445Z,50.50
2022-12-23T01:24:08.853Z,55.20
2022-12-23T01:27:12.509Z,53.40
2022-12-23T01:30:16.559Z,51.57
2022-12-23T01:33:21.845Z,48.67
2022-12-23T01:36:25.932Z,44.10
2022-12-23T01:39:29.588Z,45.30
2022-12-23T01:42:45.331Z,42.70
2022-12-23T01:45:49.605Z,43.83
2022-12-23T01:48:55.348Z,41.83
2022-12-23T01:51:59.034Z,45.83
2022-12-23T01:55:02.932Z,48.13
2022-12-23T01:58:13.312Z,52.67
2022-12-23T02:01:34.645Z,53.47
2022-12-23T02:04:39.861Z,57.20
2022-12-23T02:08:01.642Z,54.97
2022-12-23T02:11:32.269Z,57.17
2022-12-23T02:15:34.019Z,57.67
2022-12-23T02:19:07.825Z,56.00
2022-12-23T02:22:43.136Z,52.57
2022-12-23T02:26:22.942Z,57.67
2022-12-23T02:30:25.203Z,49.37
2022-12-23T02:33:52.705Z,52.00
2022-12-23T02:37:06.495Z,59.23
2022-12-23T02:40:20.531Z,48.37
2022-12-23T02:43:35.454Z,52.63
2022-12-23T02:46:47.457Z,54.53
2022-12-23T02:49:57.909Z,58.90
2022-12-23T02:53:10.646Z,52.97
2022-12-23T02:56:18.317Z,56.10
2022-12-23T02:59:26.871Z,54.40
2022-12-23T03:02:32.388Z,54.57
2022-12-23T03:05:43.958Z,51.77
2022-12-23T03:08:48.522Z,58.90
2022-12-23T03:12:05.217Z,60.23
2022-12-23T03:15:32.112Z,55.93
2022-12-23T03:18:51.639Z,50.70
2022-12-23T03:22:11.147Z,53.30
2022-12-23T03:25:25.292Z,60.40
2022-12-23T03:28:40.784Z,52.13
2022-12-23T03:31:46.691Z,51.27
2022-12-23T03:34:56.883Z,47.50
2022-12-23T03:38:05.111Z,50.87
2022-12-23T03:41:15.917Z,53.60
2022-12-23T03:44:27.958Z,58.37
2022-12-23T03:47:39.521Z,52.87
2022-12-23T03:50:45.316Z,49.67
2022-12-23T03:53:57.317Z,51.83
2022-12-23T03:57:06.939Z,60.03
2022-12-23T04:00:13.199Z,62.07
2022-12-23T04:03:28.196Z,52.77
2022-12-23T04:06:43.610Z,57.27
2022-12-23T04:09:50.668Z,55.27
2022-12-23T04:12:54.993Z,46.40
2022-12-23T04:16:00.449Z,49.03
2022-12-23T04:19:04.191Z,54.57
2022-12-23T04:22:07.857Z,50.17
2022-12-23T04:25:14.541Z,52.40
2022-12-23T04:28:20.180Z,47.67
2022-12-23T04:31:23.849Z,49.60
2022-12-23T04:34:27.583Z,49.23
2022-12-23T04:37:31.393Z,53.70
2022-12-23T04:40:37.244Z,49.20
2022-12-23T04:43:40.804Z,52.10
2022-12-23T04:46:44.610Z,53.17
2022-12-23T04:49:48.263Z,48.17
2022-12-23T04:52:51.844Z,51.03
2022-12-23T04:55:57.003Z,55.10
2022-12-23T04:59:02.298Z,58.27
2022-12-23T05:02:06.272Z,60.10
2022-12-23T05:05:10.695Z,64.83
2022-12-23T05:08:14.286Z,63.90
2022-12-23T05:11:19.534Z,81.90
2022-12-23T05:14:23.270Z,79.37
2022-12-23T05:17:26.936Z,87.57
2022-12-23T05:20:30.522Z,118.40
2022-12-23T05:23:34.376Z,90.47
2022-12-23T05:26:39.754Z,113.10
2022-12-23T05:29:43.472Z,224.77
2022-12-23T05:32:47.137Z,162.83
2022-12-23T05:35:50.743Z,215.77
2022-12-23T05:38:54.365Z,271.37
2022-12-23T05:41:59.375Z,319.43
2022-12-23T05:45:02.976Z,349.90
2022-12-23T05:48:07.126Z,381.73
2022-12-23T05:51:10.758Z,355.90
2022-12-23T05:54:14.515Z,599.23
2022-12-23T05:57:19.648Z,551.00
2022-12-23T06:00:24.516Z,416.67
2022-12-23T06:03:28.507Z,124.80
2022-12-23T06:06:32.242Z,328.10
2022-12-23T06:09:36.110Z,467.10
2022-12-23T06:12:41.198Z,174.37
2022-12-23T06:15:44.933Z,392.00
2022-12-23T06:18:48.585Z,162.87
2022-12-23T06:21:52.311Z,185.20
2022-12-23T06:24:55.905Z,158.30
2022-12-23T06:28:01.039Z,77.43
2022-12-23T06:31:04.839Z,193.83
2022-12-23T06:34:08.580Z,170.60
2022-12-23T06:37:12.725Z,137.80
2022-12-23T06:40:16.612Z,146.13
2022-12-23T06:43:21.875Z,179.23
2022-12-23T06:46:25.712Z,137.27
2022-12-23T06:49:29.469Z,227.63
2022-12-23T06:52:33.245Z,421.67
2022-12-23T06:55:37.077Z,373.90
2022-12-23T06:58:42.097Z,335.70
2022-12-23T07:01:45.923Z,304.03
2022-12-23T07:04:49.648Z,418.10
2022-12-23T07:07:53.309Z,472.73
2022-12-23T07:11:00.148Z,370.40
2022-12-23T07:14:05.213Z,452.97
2022-12-23T07:17:09.132Z,382.80
2022-12-23T07:20:14.807Z,235.47
2022-12-23T07:23:18.612Z,332.97
2022-12-23T07:26:22.249Z,391.83
2022-12-23T07:29:27.399Z,325.80
2022-12-23T07:32:31.012Z,336.00
2022-12-23T07:35:34.709Z,331.00
2022-12-23T07:38:38.636Z,373.77
2022-12-23T07:41:42.530Z,286.00
2022-12-23T07:44:47.568Z,231.57
2022-12-23T07:47:54.802Z,376.33
2022-12-23T07:51:02.872Z,367.93
2022-12-23T07:54:06.982Z,409.90
2022-12-23T07:57:10.624Z,363.23
2022-12-23T08:00:17.645Z,276.20
2022-12-23T08:03:21.286Z,197.90
2022-12-23T08:06:25.493Z,400.13
2022-12-23T08:09:29.301Z,618.97
2022-12-23T08:12:33.504Z,281.27
2022-12-23T08:15:39.675Z,203.57
2022-12-23T08:18:43.729Z,301.03
2022-12-23T08:21:47.427Z,285.13
2022-12-23T08:24:54.036Z,147.87
2022-12-23T08:27:57.718Z,392.87
2022-12-23T08:31:12.166Z,267.47
2022-12-23T08:34:15.973Z,168.40
2022-12-23T08:37:19.655Z,127.30
2022-12-23T08:40:23.734Z,117.13
2022-12-23T08:43:31.965Z,100.83
2022-12-23T08:46:41.829Z,85.23
2022-12-23T08:49:45.625Z,89.90
2022-12-23T08:52:49.442Z,95.97
2022-12-23T08:55:53.034Z,94.93
2022-12-23T08:58:57.632Z,86.60
2022-12-23T09:02:03.576Z,88.50
2022-12-23T09:05:07.602Z,85.93
2022-12-23T09:08:11.288Z,99.17
2022-12-23T09:11:17.837Z,92.27
2022-12-23T09:14:21.743Z,97.43
2022-12-23T09:17:26.706Z,98.70
2022-12-23T09:20:30.438Z,106.13
2022-12-23T09:23:35.385Z,90.87
2022-12-23T09:26:39.051Z,81.27
2022-12-23T09:29:44.764Z,88.87
2022-12-23T09:32:49.897Z,82.43
2022-12-23T09:35:53.518Z,93.13
2022-12-23T09:38:59.703Z,88.73
2022-12-23T09:42:14.169Z,94.90
2022-12-23T09:45:54.353Z,88.63
2022-12-23T09:49:06.974Z,82.57
2022-12-23T09:52:17.600Z,78.83
2022-12-23T09:55:24.914Z,84.67
2022-12-23T09:58:34.493Z,83.33
2022-12-23T10:01:48.155Z,84.73
2022-12-23T10:05:06.381Z,83.30
2022-12-23T10:08:19.691Z,82.13
2022-12-23T10:11:27.856Z,75.77
2022-12-23T10:14:34.822Z,79.97
2022-12-23T10:17:43.610Z,71.30
2022-12-23T10:20:55.867Z,65.33
2022-12-23T10:24:08.534Z,76.00
2022-12-23T10:27:25.611Z,72.20
2022-12-23T10:31:05.824Z,62.97
2022-12-23T10:34:13.186Z,70.80
2022-12-23T10:37:29.916Z,60.33
2022-12-23T10:40:51.410Z,63.37
2022-12-23T10:44:25.324Z,56.83
2022-12-23T10:47:49.145Z,72.10
2022-12-23T10:51:02.520Z,75.73
2022-12-23T10:54:14.197Z,63.17
2022-12-23T10:57:20.755Z,66.77
2022-12-23T11:00:26.760Z,65.40
2022-12-23T11:03:35.022Z,55.70
2022-12-23T11:06:44.651Z,52.80
2022-12-23T11:09:56.273Z,47.93
2022-12-23T11:13:01.597Z,56.27
2022-12-23T11:16:23.963Z,51.90
2022-12-23T11:19:28.009Z,52.83
2022-12-23T11:22:31.646Z,50.73
2022-12-23T11:25:41.566Z,47.67
2022-12-23T11:28:53.926Z,45.43
2022-12-23T11:31:58.251Z,46.93
2022-12-23T11:35:02.125Z,46.47
2022-12-23T11:38:15.169Z,42.30
2022-12-23T11:41:25.927Z,43.63
2022-12-23T11:44:33.594Z,43.10
2022-12-23T11:47:42.924Z,43.13
2022-12-23T11:50:59.698Z,41.00
2022-12-23T11:54:04.571Z,38.37
2022-12-23T11:57:20.109Z,41.03
2022-12-23T12:00:27.635Z,49.83
2022-12-23T12:03:37.513Z,50.10
2022-12-23T12:06:52.672Z,49.17
2022-12-23T12:10:01.463Z,41.97
2022-12-23T12:13:21.751Z,50.10
2022-12-23T12:16:49.472Z,46.20
2022-12-23T12:20:06.099Z,40.70
2022-12-23T12:23:19.508Z,44.57
2022-12-23T12:26:30.037Z,45.47
2022-12-23T12:29:44.927Z,47.17
2022-12-23T12:33:01.057Z,44.10
2022-12-23T12:36:18.057Z,40.80
2022-12-23T12:39:29.052Z,43.47
2022-12-23T12:42:41.459Z,46.47
2022-12-23T12:45:55.040Z,49.30
2022-12-23T12:49:10.346Z,47.63
2022-12-23T12:52:20.642Z,41.10
2022-12-23T12:55:32.475Z,45.97
2022-12-23T12:58:36.208Z,46.53
2022-12-23T13:01:57.781Z,47.17
2022-12-23T13:05:24.876Z,43.67
2022-12-23T13:09:01.901Z,41.13
2022-12-23T13:12:18.873Z,45.77
2022-12-23T13:15:36.683Z,46.70
2022-12-23T13:18:53.811Z,50.80
2022-12-23T13:22:09.007Z,49.33
2022-12-23T13:25:20.067Z,49.47
2022-12-23T13:28:37.435Z,52.67
2022-12-23T13:31:55.114Z,49.17
2022-12-23T13:35:17.323Z,48.83
2022-12-23T13:38:46.843Z,54.17
2022-12-23T13:41:58.506Z,49.93
2022-12-23T13:45:07.822Z,46.83
2022-12-23T13:48:37.590Z,73.13
2022-12-23T13:51:55.637Z,56.57
2022-12-23T13:55:11.964Z,52.40
2022-12-23T13:58:21.161Z,48.47
2022-12-23T14:01:38.271Z,46.87
2022-12-23T14:05:01.140Z,47.87
2022-12-23T14:08:21.928Z,46.13
2022-12-23T14:11:28.602Z,52.83
2022-12-23T14:14:33.188Z,54.60
2022-12-23T14:17:47.407Z,43.57
2022-12-23T14:21:03.200Z,52.30
2022-12-23T14:24:49.033Z,68.37
2022-12-23T14:28:03.729Z,48.83
2022-12-23T14:31:28.055Z,63.10
2022-12-23T14:34:36.285Z,42.13
2022-12-23T14:37:41.091Z,47.13
2022-12-23T14:41:14.502Z,41.13
2022-12-23T14:44:43.741Z,41.90
2022-12-23T14:47:47.758Z,50.20
2022-12-23T14:50:59.707Z,44.40
2022-12-23T14:54:16.580Z,45.17
2022-12-23T14:57:36.453Z,47.30
2022-12-23T15:00:51.224Z,40.53
2022-12-23T15:04:01.375Z,45.33
2022-12-23T15:07:08.813Z,47.60
2022-12-23T15:10:21.402Z,48.77
2022-12-23T15:13:29.988Z,51.93
2022-12-23T15:16:37.614Z,44.10
2022-12-23T15:19:48.174Z,58.20
2022-12-23T15:22:52.773Z,51.63
2022-12-23T15:26:00.257Z,51.57
2022-12-23T15:29:09.344Z,54.20
2022-12-23T15:32:13.631Z,53.90
2022-12-23T15:35:24.717Z,58.37
2022-12-23T15:38:37.894Z,54.23
2022-12-23T15:41:46.617Z,57.93
2022-12-23T15:44:52.417Z,60.03
2022-12-23T15:47:56.700Z,51.40
2022-12-23T15:51:06.795Z,58.83
2022-12-23T15:54:24.202Z,57.70
2022-12-23T15:57:31.340Z,56.37
2022-12-23T16:00:42.827Z,51.87
2022-12-23T16:03:54.319Z,56.27
2022-12-23T16:06:58.228Z,66.97
2022-12-23T16:10:06.076Z,64.83
2022-12-23T16:13:20.146Z,61.40
2022-12-23T16:16:40.276Z,66.27
2022-12-23T16:19:48.213Z,60.93
2022-12-23T16:22:55.381Z,65.00
2022-12-23T16:26:02.687Z,67.47
2022-12-23T16:29:06.703Z,64.60
2022-12-23T16:32:18.008Z,68.60
2022-12-23T16:35:39.665Z,64.57
2022-12-23T16:38:43.420Z,69.23
2022-12-23T16:41:47.360Z,63.33
2022-12-23T16:44:51.583Z,60.30
2022-12-23T16:47:59.286Z,67.97
2022-12-23T16:51:08.422Z,70.10
2022-12-23T16:54:16.999Z,66.50
2022-12-23T16:57:20.863Z,64.20
2022-12-23T17:00:25.018Z,73.40
2022-12-23T17:03:30.236Z,66.77
2022-12-23T17:06:36.062Z,55.40
2022-12-23T17:09:39.838Z,60.20
2022-12-23T17:12:44.624Z,70.93
2022-12-23T17:15:48.446Z,62.90
2022-12-23T17:18:55.177Z,68.47
2022-12-23T17:22:04.500Z,62.67
2022-12-23T17:25:08.933Z,61.10
2022-12-23T17:28:12.863Z,58.50
2022-12-23T17:31:25.976Z,57.47
2022-12-23T17:34:31.977Z,55.17
2022-12-23T17:37:40.656Z,50.57
2022-12-23T17:40:49.059Z,58.10
2022-12-23T17:43:53.084Z,59.20
2022-12-23T17:46:56.936Z,49.77
2022-12-23T17:50:02.140Z,72.63
2022-12-23T17:53:06.027Z,56.27
2022-12-23T17:56:14.966Z,52.90
2022-12-23T17:59:18.700Z,59.13
2022-12-23T18:02:28.128Z,66.60
2022-12-23T18:05:36.821Z,53.73
2022-12-23T18:08:40.512Z,44.47
2022-12-23T18:11:47.967Z,53.90
2022-12-23T18:14:51.682Z,49.27
2022-12-23T18:17:55.530Z,54.80
2022-12-23T18:21:01.868Z,51.90
2022-12-23T18:24:06.505Z,59.40
2022-12-23T18:27:15.716Z,52.07
2022-12-23T18:30:20.853Z,53.77
2022-12-23T18:33:29.500Z,53.93
2022-12-23T18:36:35.318Z,60.57
2022-12-23T18:39:39.692Z,62.03
2022-12-23T18:42:43.331Z,56.37
2022-12-23T18:45:52.394Z,53.73
2022-12-23T18:48:56.725Z,57.20
2022-12-23T18:52:02.248Z,53.40
2022-12-23T18:55:08.214Z,49.13
2022-12-23T18:58:14.478Z,54.87
2022-12-23T19:01:19.951Z,47.33
2022-12-23T19:04:23.759Z,49.87
2022-12-23T19:07:28.928Z,52.10
2022-12-23T19:10:34.742Z,49.10
2022-12-23T19:13:38.555Z,46.50
2022-12-23T19:16:49.263Z,41.40
2022-12-23T19:19:55.111Z,48.70
2022-12-23T19:23:00.344Z,56.77
2022-12-23T19:26:05.923Z,39.40
2022-12-23T19:29:09.614Z,44.83
2022-12-23T19:32:13.366Z,41.47
2022-12-23T19:35:17.083Z,40.60
2022-12-23T19:38:22.234Z,40.53
2022-12-23T19:41:26.722Z,43.67
2022-12-23T19:44:30.526Z,32.37
2022-12-23T19:47:34.328Z,35.80
2022-12-23T19:50:38.197Z,29.00
2022-12-23T19:53:46.163Z,31.70
2022-12-23T19:56:51.966Z,34.50
2022-12-23T19:59:56.660Z,30.23
2022-12-23T20:03:00.382Z,33.67
2022-12-23T20:06:05.397Z,28.17
2022-12-23T20:09:13.996Z,33.63
2022-12-23T20:12:17.721Z,31.33
2022-12-23T20:15:21.584Z,25.47
2022-12-23T20:18:25.280Z,30.80
2022-12-23T20:21:28.984Z,30.67
2022-12-23T20:24:35.992Z,30.23
2022-12-23T20:27:39.904Z,28.13
2022-12-23T20:30:43.764Z,36.87
2022-12-23T20:33:49.364Z,26.60
2022-12-23T20:36:53.020Z,26.67
2022-12-23T20:39:58.174Z,32.40
2022-12-23T20:43:01.902Z,23.03
2022-12-23T20:46:08.032Z,33.27
2022-12-23T20:49:11.828Z,28.70
2022-12-23T20:52:15.546Z,26.97
2022-12-23T20:55:21.435Z,25.60
2022-12-23T20:58:42.362Z,23.53
2022-12-23T21:01:46.881Z,23.87
2022-12-23T21:04:50.588Z,22.23
2022-12-23T21:07:54.279Z,22.73
2022-12-23T21:10:59.703Z,27.47
2022-12-23T21:14:06.840Z,21.03
2022-12-23T21:17:11.005Z,20.00
2022-12-23T21:20:14.709Z,20.77
2022-12-23T21:23:18.296Z,21.27
2022-12-23T21:26:26.430Z,24.47
2022-12-23T21:29:29.977Z,22.67
2022-12-23T21:32:33.897Z,22.77
2022-12-23T21:35:37.538Z,28.20
2022-12-23T21:38:44.872Z,22.00
2022-12-23T21:41:51.528Z,28.97
2022-12-23T21:44:55.424Z,23.90
2022-12-23T21:47:59.002Z,20.57
2022-12-23T21:51:09.376Z,28.03
2022-12-23T21:54:13.859Z,21.37
2022-12-23T21:57:19.666Z,21.50
2022-12-23T22:00:23.432Z,20.10
2022-12-23T22:03:28.739Z,20.47
2022-12-23T22:06:35.954Z,21.93
2022-12-23T22:09:39.596Z,18.53
2022-12-23T22:12:44.562Z,20.77
2022-12-23T22:15:48.170Z,19.00
2022-12-23T22:18:53.626Z,20.67
2022-12-23T22:21:57.341Z,20.13
2022-12-23T22:25:01.021Z,17.63
2022-12-23T22:28:06.281Z,23.03
2022-12-23T22:31:18.922Z,19.57
2022-12-23T22:34:24.376Z,23.03
2022-12-23T22:37:27.949Z,19.77
2022-12-23T22:40:31.701Z,15.50
2022-12-23T22:43:36.829Z,16.70
2022-12-23T22:46:40.695Z,19.07
2022-12-23T22:49:44.320Z,21.60
2022-12-23T22:52:47.944Z,19.23
2022-12-23T22:55:59.569Z,19.13
2022-12-23T22:59:05.117Z,20.37
2022-12-23T23:02:08.911Z,23.27
2022-12-23T23:05:13.218Z,15.73
2022-12-23T23:08:17.498Z,19.70
2022-12-23T23:11:21.580Z,23.27
2022-12-23T23:14:27.015Z,19.33
2022-12-23T23:17:31.030Z,21.63
2022-12-23T23:20:34.661Z,18.47
2022-12-23T23:23:38.337Z,20.13
2022-12-23T23:26:41.919Z,15.57
2022-12-23T23:29:46.945Z,19.10
2022-12-23T23:32:50.545Z,19.07
2022-12-23T23:35:56.697Z,16.87
2022-12-23T23:39:00.325Z,16.40
2022-12-23T23:42:03.893Z,18.73
2022-12-23T23:45:10.265Z,16.73
2022-12-23T23:48:15.014Z,18.20
2022-12-23T23:51:18.604Z,21.37
2022-12-23T23:54:22.269Z,18.00
2022-12-23T23:57:26.362Z,18.23
